Time;durP1;ratioP1;P1;durP2;ratioP2;P2;SDS_P1;SDS_P2;PMS_P1;PMS_P2;Temp;Humidity;BMP_temperature;BMP_pressure;BME280_temperature;BME280_humidity;BME280_pressure;Samples;Min_cycle;Max_cycle;Signal;HPM_P1;HPM_P2
2021/03/19 00:00:28;;;;;;;162.37;16.93;;;;;;;-0.22;87.53;100245.35;1749509;82;20987;-41
2021/03/19 00:02:55;;;;;;;159.27;17.37;;;;;;;-0.24;87.52;100249.55;1749584;82;21049;-43
2021/03/19 00:05:24;;;;;;;160.85;15.70;;;;;;;-0.27;87.55;100242.70;1749526;82;20947;-43
2021/03/19 00:07:54;;;;;;;154.30;16.93;;;;;;;-0.28;87.59;100243.95;1745233;82;21339;-43
2021/03/19 00:10:25;;;;;;;160.40;16.48;;;;;;;-0.30;87.60;100243.90;1743893;82;21145;-44
2021/03/19 00:12:54;;;;;;;148.35;17.32;;;;;;;-0.33;87.62;100241.30;1743928;82;21007;-42
2021/03/19 00:15:24;;;;;;;159.63;17.52;;;;;;;-0.37;87.61;100239.11;1743833;82;21133;-42
2021/03/19 00:17:54;;;;;;;166.77;16.32;;;;;;;-0.42;87.61;100238.12;1743818;82;20998;-43
2021/03/19 00:23:02;;;;;;;198.45;18.57;;;;;;;-0.45;87.76;100235.52;1777021;79;22687;-41
2021/03/19 00:25:30;;;;;;;158.65;17.02;;;;;;;-0.51;87.87;100236.22;1749495;81;21010;-42
2021/03/19 00:27:58;;;;;;;146.45;16.17;;;;;;;-0.52;87.87;100236.20;1724593;82;21221;-42
2021/03/19 00:30:25;;;;;;;188.62;17.80;;;;;;;-0.53;87.75;100237.87;1719519;83;21018;-43
2021/03/19 00:32:53;;;;;;;176.55;18.15;;;;;;;-0.56;87.80;100236.95;1719665;83;21019;-42
2021/03/19 00:35:21;;;;;;;173.75;17.42;;;;;;;-0.57;87.82;100242.87;1719583;83;20907;-42
2021/03/19 00:37:50;;;;;;;168.02;16.02;;;;;;;-0.60;87.82;100241.97;1719591;83;20951;-42
2021/03/19 00:40:20;;;;;;;199.23;16.05;;;;;;;-0.60;87.85;100238.16;1719642;83;21455;-42
2021/03/19 00:42:47;;;;;;;185.95;17.80;;;;;;;-0.63;87.86;100237.22;1719604;82;21690;-42
2021/03/19 00:45:16;;;;;;;180.55;16.82;;;;;;;-0.66;87.88;100240.96;1719601;82;20978;-42
2021/03/19 00:47:45;;;;;;;159.65;14.35;;;;;;;-0.68;87.88;100242.18;1719244;82;21363;-41
2021/03/19 00:50:16;;;;;;;172.32;17.25;;;;;;;-0.70;87.85;100247.64;1719648;83;20931;-43
2021/03/19 00:52:43;;;;;;;149.70;15.10;;;;;;;-0.76;87.79;100240.75;1719705;82;21202;-42
2021/03/19 00:55:13;;;;;;;175.38;15.30;;;;;;;-0.80;87.96;100246.98;1719526;83;20974;-44
2021/03/19 00:57:41;;;;;;;161.30;14.95;;;;;;;-0.84;87.99;100247.73;1719663;83;20987;-43
2021/03/19 01:00:11;;;;;;;162.45;15.95;;;;;;;-0.89;88.02;100241.25;1719650;83;21022;-44
2021/03/19 01:02:38;;;;;;;148.93;16.10;;;;;;;-0.93;88.05;100241.58;1719527;83;20971;-42
2021/03/19 01:05:15;;;;;;;191.55;17.40;;;;;;;-0.98;88.15;100238.49;1719640;82;21381;-42
2021/03/19 01:07:43;;;;;;;179.18;16.55;;;;;;;-1.03;88.17;100232.86;1719565;83;20951;-42
2021/03/19 01:10:15;;;;;;;162.80;15.20;;;;;;;-1.07;88.22;100234.88;1719580;83;20939;-43
2021/03/19 01:12:43;;;;;;;168.37;15.48;;;;;;;-1.11;88.27;100233.52;1719618;83;21583;-43
2021/03/19 01:15:12;;;;;;;174.07;15.83;;;;;;;-1.18;88.36;100230.78;1719683;83;21042;-41
2021/03/19 01:17:39;;;;;;;161.60;15.53;;;;;;;-1.25;88.32;100234.00;1719598;83;22284;-43
2021/03/19 01:20:11;;;;;;;140.57;16.15;;;;;;;-1.31;88.38;100234.69;1719556;82;21023;-42
2021/03/19 01:22:39;;;;;;;158.78;15.85;;;;;;;-1.37;88.45;100241.30;1720079;82;21026;-43
2021/03/19 01:25:14;;;;;;;193.37;17.42;;;;;;;-1.45;88.65;100243.20;1720335;83;21080;-42
2021/03/19 01:27:43;;;;;;;179.60;15.00;;;;;;;-1.50;88.71;100240.11;1694090;83;21011;-42
2021/03/19 01:30:18;;;;;;;179.30;16.00;;;;;;;-1.54;88.76;100243.36;1720365;83;21348;-43
2021/03/19 01:32:46;;;;;;;163.37;18.03;;;;;;;-1.60;88.92;100239.84;1720396;82;21050;-42
2021/03/19 01:35:15;;;;;;;169.05;17.27;;;;;;;-1.65;89.09;100245.59;1719900;83;20959;-42
2021/03/19 01:37:43;;;;;;;188.70;15.43;;;;;;;-1.68;89.15;100246.78;1719928;82;21559;-43
2021/03/19 01:40:13;;;;;;;165.43;17.42;;;;;;;-1.71;89.13;100255.19;1719871;83;20908;-43
2021/03/19 01:42:55;;;;;;;162.22;15.90;;;;;;;-1.76;89.18;100253.78;1719798;83;21124;-43
2021/03/19 01:46:06;;;;;;;137.07;13.88;;;;;;;-1.81;89.25;100254.06;1719733;83;20967;-42
2021/03/19 01:49:31;;;;;;;160.40;15.20;;;;;;;-1.83;89.33;100256.09;1719808;83;21073;-41
2021/03/19 01:52:55;;;;;;;148.25;14.90;;;;;;;-1.86;89.45;100258.16;1719791;83;20978;-41
2021/03/19 01:56:18;;;;;;;162.70;16.48;;;;;;;-1.89;89.60;100263.14;1719816;82;20967;-42
2021/03/19 01:59:42;;;;;;;164.88;13.85;;;;;;;-1.91;89.77;100266.02;1719927;82;22091;-42
2021/03/19 02:03:05;;;;;;;141.22;13.83;;;;;;;-1.93;89.84;100265.98;1719774;82;21022;-42
2021/03/19 02:06:30;;;;;;;196.00;16.87;;;;;;;-1.95;89.99;100268.89;1719757;82;21051;-42
2021/03/19 02:09:55;;;;;;;163.65;15.40;;;;;;;-1.96;90.06;100267.56;1719870;83;20974;-42
2021/03/19 02:13:18;;;;;;;154.47;15.43;;;;;;;-1.96;90.15;100271.37;1719736;83;20951;-42
2021/03/19 02:16:43;;;;;;;147.80;16.10;;;;;;;-1.98;90.23;100266.27;1719893;82;22385;-43
2021/03/19 02:20:07;;;;;;;179.97;16.45;;;;;;;-1.99;90.32;100278.50;1719779;83;21078;-42
2021/03/19 02:23:31;;;;;;;132.40;15.18;;;;;;;-1.97;90.42;100277.26;1712640;83;21046;-41
2021/03/19 02:26:54;;;;;;;191.25;16.55;;;;;;;-1.98;90.45;100278.08;1706222;84;20987;-43
2021/03/19 02:30:18;;;;;;;156.10;15.68;;;;;;;-2.00;90.50;100283.52;1706269;84;20948;-44
2021/03/19 02:32:46;;;;;;;168.55;15.88;;;;;;;-1.99;90.54;100285.23;1706264;84;21207;-42
2021/03/19 02:35:18;;;;;;;129.27;13.70;;;;;;;-2.00;90.59;100282.24;1706133;83;21054;-42
2021/03/19 02:37:46;;;;;;;159.95;16.30;;;;;;;-1.99;90.66;100289.04;1706257;82;20991;-42
2021/03/19 02:40:19;;;;;;;146.18;14.45;;;;;;;-1.99;90.67;100282.30;1706179;84;21059;-42
2021/03/19 02:42:47;;;;;;;157.52;16.87;;;;;;;-1.98;90.69;100285.69;1706203;83;21011;-42
2021/03/19 02:45:20;;;;;;;134.78;16.27;;;;;;;-1.98;90.66;100289.10;1706319;84;22125;-42
2021/03/19 02:47:48;;;;;;;157.15;12.98;;;;;;;-1.97;90.70;100295.02;1706275;82;20943;-42
2021/03/19 02:50:17;;;;;;;178.40;16.62;;;;;;;-1.97;90.78;100295.02;1706255;82;21582;-42
2021/03/19 02:52:45;;;;;;;142.13;14.98;;;;;;;-1.97;90.81;100297.16;1706185;84;21054;-41
2021/03/19 02:55:16;;;;;;;142.47;15.72;;;;;;;-1.94;90.77;100298.52;1706217;84;20932;-42
2021/03/19 02:57:44;;;;;;;168.00;14.55;;;;;;;-1.94;90.84;100293.84;1706160;82;21386;-42
2021/03/19 03:00:17;;;;;;;129.93;14.58;;;;;;;-1.93;90.82;100303.17;1706228;84;20952;-43
2021/03/19 03:02:45;;;;;;;149.97;15.85;;;;;;;-1.93;90.78;100301.91;1706223;83;20952;-45
2021/03/19 03:05:16;;;;;;;149.07;15.83;;;;;;;-1.92;90.79;100299.42;1706144;83;21218;-42
2021/03/19 03:07:43;;;;;;;143.32;14.85;;;;;;;-1.92;90.90;100301.97;1706297;84;20916;-43
2021/03/19 03:10:15;;;;;;;168.45;15.15;;;;;;;-1.91;90.99;100299.00;1706215;84;21372;-42
2021/03/19 03:12:42;;;;;;;149.18;14.73;;;;;;;-1.91;91.02;100299.88;1706099;82;21039;-44
2021/03/19 03:15:13;;;;;;;138.30;16.00;;;;;;;-1.91;90.95;100296.47;1706302;84;20999;-43
2021/03/19 03:17:40;;;;;;;146.22;17.17;;;;;;;-1.92;90.82;100304.89;1706189;84;21015;-43
2021/03/19 03:20:11;;;;;;;151.40;17.27;;;;;;;-1.95;90.87;100304.80;1706251;84;21031;-41
2021/03/19 03:22:41;;;;;;;167.55;15.38;;;;;;;-1.98;90.86;100301.79;1706102;82;21150;-41
2021/03/19 03:25:11;;;;;;;141.18;14.40;;;;;;;-1.98;90.87;100310.67;1706210;84;20955;-41
2021/03/19 03:27:39;;;;;;;139.12;15.78;;;;;;;-2.00;90.89;100311.03;1706190;82;20993;-41
2021/03/19 03:30:17;;;;;;;147.07;14.70;;;;;;;-2.03;90.96;100314.72;1706265;84;21019;-41
2021/03/19 03:32:52;;;;;;;158.32;14.35;;;;;;;-2.00;90.98;100310.16;1847562;76;22758;-42
2021/03/19 03:35:21;;;;;;;120.35;14.63;;;;;;;-2.06;90.95;100324.38;1817859;77;20872;-42
2021/03/19 03:37:48;;;;;;;108.67;14.05;;;;;;;-2.08;90.97;100327.28;1817801;79;21978;-42
2021/03/19 03:40:21;;;;;;;126.20;14.58;;;;;;;-2.10;91.06;100327.64;1817845;79;21613;-41
2021/03/19 03:42:48;;;;;;;147.02;15.48;;;;;;;-2.11;91.11;100330.99;1817824;79;20987;-42
2021/03/19 03:45:16;;;;;;;154.05;17.35;;;;;;;-2.09;91.14;100334.83;1817772;79;21002;-42
2021/03/19 03:47:44;;;;;;;117.67;15.05;;;;;;;-2.10;91.20;100335.25;1817810;77;21353;-42
2021/03/19 03:50:16;;;;;;;141.73;16.10;;;;;;;-2.10;91.31;100339.05;1817844;77;21242;-42
2021/03/19 03:52:45;;;;;;;157.67;15.80;;;;;;;-2.09;91.34;100342.44;1813219;79;20998;-43
2021/03/19 03:55:14;;;;;;;155.85;16.17;;;;;;;-2.07;91.39;100348.03;1817815;77;21602;-42
2021/03/19 03:57:41;;;;;;;138.97;15.75;;;;;;;-2.05;91.45;100346.40;1817792;78;20939;-42
2021/03/19 04:00:15;;;;;;;149.72;14.78;;;;;;;-2.04;91.53;100350.66;1817827;78;21022;-42
2021/03/19 04:02:43;;;;;;;126.33;13.68;;;;;;;-2.03;91.60;100350.23;1817892;77;22129;-42
2021/03/19 04:05:15;;;;;;;154.97;15.75;;;;;;;-1.99;91.63;100352.47;1817768;78;21729;-42
2021/03/19 04:07:43;;;;;;;139.05;14.80;;;;;;;-1.96;91.70;100353.83;1817762;79;20982;-42
2021/03/19 04:10:12;;;;;;;137.05;14.13;;;;;;;-1.95;91.74;100354.28;1817727;79;20990;-43
2021/03/19 04:12:40;;;;;;;151.50;15.28;;;;;;;-1.93;91.79;100358.61;1817823;79;21045;-42
2021/03/19 04:15:09;;;;;;;129.75;14.03;;;;;;;-1.91;91.83;100357.37;1817829;77;21149;-41
2021/03/19 04:17:36;;;;;;;146.40;13.25;;;;;;;-1.86;91.84;100362.59;1817698;79;20994;-42
2021/03/19 04:20:07;;;;;;;169.32;16.40;;;;;;;-1.82;91.85;100365.67;1817782;78;21022;-41
2021/03/19 04:22:35;;;;;;;130.47;16.40;;;;;;;-1.79;91.90;100366.64;1817855;78;21523;-41
2021/03/19 04:25:04;;;;;;;151.87;15.53;;;;;;;-1.76;91.91;100367.16;1817837;79;20926;-42
2021/03/19 04:27:33;;;;;;;150.53;15.38;;;;;;;-1.74;91.88;100367.64;1797457;78;21188;-42
2021/03/19 04:30:01;;;;;;;133.50;14.03;;;;;;;-1.70;91.85;100371.53;1785525;80;20998;-44
2021/03/19 04:32:28;;;;;;;123.40;14.03;;;;;;;-1.67;91.86;100374.16;1785502;78;20994;-45
2021/03/19 04:34:56;;;;;;;133.32;14.73;;;;;;;-1.67;91.92;100375.04;1785607;80;21635;-44
2021/03/19 04:37:24;;;;;;;169.15;13.90;;;;;;;-1.64;91.90;100375.52;1785574;80;20990;-41
2021/03/19 04:39:53;;;;;;;145.05;15.15;;;;;;;-1.61;91.89;100376.48;1785588;80;20926;-42
2021/03/19 04:42:21;;;;;;;135.50;16.05;;;;;;;-1.56;91.86;100379.56;1785327;80;20930;-43
2021/03/19 04:44:49;;;;;;;115.72;13.83;;;;;;;-1.55;91.85;100373.28;1784998;80;20919;-43
2021/03/19 04:47:16;;;;;;;147.43;14.40;;;;;;;-1.52;91.84;100373.75;1784926;79;20921;-43
2021/03/19 04:49:44;;;;;;;150.47;14.65;;;;;;;-1.47;91.89;100374.35;1785048;79;20930;-43
2021/03/19 04:52:12;;;;;;;128.65;16.48;;;;;;;-1.42;91.84;100372.35;1784935;80;21254;-43
2021/03/19 04:54:40;;;;;;;143.70;13.65;;;;;;;-1.37;91.79;100374.22;1784885;79;20946;-42
2021/03/19 04:57:10;;;;;;;137.00;15.10;;;;;;;-1.31;91.75;100377.35;1785083;80;21077;-44
2021/03/19 04:59:37;;;;;;;126.45;14.45;;;;;;;-1.26;91.73;100374.53;1784979;80;20997;-43
2021/03/19 05:02:04;;;;;;;132.80;14.25;;;;;;;-1.19;91.72;100371.34;1784964;80;21002;-44
2021/03/19 05:04:32;;;;;;;147.72;13.32;;;;;;;-1.09;91.67;100374.16;1784934;80;21356;-42
2021/03/19 05:07:07;;;;;;;120.33;14.75;;;;;;;-1.02;91.54;100372.23;1784988;79;20923;-42
2021/03/19 05:09:34;;;;;;;148.02;14.07;;;;;;;-0.94;91.51;100375.83;1784937;79;21017;-43
2021/03/19 05:12:04;;;;;;;139.22;14.68;;;;;;;-0.85;91.47;100373.11;1784926;80;21014;-41
2021/03/19 05:14:32;;;;;;;117.55;12.03;;;;;;;-0.75;91.32;100381.42;1785057;80;21373;-42
2021/03/19 05:16:59;;;;;;;135.93;14.20;;;;;;;-0.70;91.06;100382.39;1784972;80;21461;-44
2021/03/19 05:19:27;;;;;;;145.22;14.07;;;;;;;-0.64;90.97;100382.55;1784859;80;21659;-43
2021/03/19 05:21:55;;;;;;;133.95;14.30;;;;;;;-0.58;90.79;100381.86;1785017;80;21026;-42
2021/03/19 05:24:23;;;;;;;142.03;14.35;;;;;;;-0.54;90.58;100385.35;1784973;79;21650;-42
2021/03/19 05:26:52;;;;;;;133.87;14.40;;;;;;;-0.46;90.49;100390.21;1784974;79;21042;-42
2021/03/19 05:29:20;;;;;;;126.72;14.93;;;;;;;-0.38;90.39;100384.93;1784922;80;22152;-45
2021/03/19 05:31:48;;;;;;;153.47;15.88;;;;;;;-0.31;90.25;100386.80;1784784;79;20954;-42
2021/03/19 05:34:17;;;;;;;142.75;14.35;;;;;;;-0.24;89.87;100392.03;1784918;80;20927;-42
2021/03/19 05:36:44;;;;;;;121.30;14.20;;;;;;;-0.17;89.74;100391.34;1784900;80;21014;-43
2021/03/19 05:39:12;;;;;;;149.65;16.73;;;;;;;-0.08;89.47;100390.72;1785018;80;20923;-42
2021/03/19 05:41:41;;;;;;;126.53;13.78;;;;;;;-0.01;89.26;100399.81;1785079;80;22327;-43
2021/03/19 05:44:15;;;;;;;112.72;12.40;;;;;;;0.07;89.13;100395.31;1784911;80;21006;-45
2021/03/19 05:46:47;;;;;;;120.75;12.43;;;;;;;0.15;88.85;100401.47;1785122;80;20990;-42
2021/03/19 05:49:29;;;;;;;127.97;14.05;;;;;;;0.24;88.54;100395.30;1784910;80;21480;-44
2021/03/19 05:52:08;;;;;;;124.47;13.70;;;;;;;0.28;88.09;100393.70;1784933;80;20994;-43
2021/03/19 05:54:39;;;;;;;151.95;13.95;;;;;;;0.33;87.79;100392.50;1754505;80;21379;-43
2021/03/19 05:57:29;;;;;;;127.40;15.15;;;;;;;0.43;87.68;100398.27;1784855;80;21034;-43
2021/03/19 05:59:58;;;;;;;108.97;11.80;;;;;;;0.54;87.31;100405.72;1784920;80;21006;-43
2021/03/19 06:02:33;;;;;;;131.80;13.00;;;;;;;0.64;86.95;100408.05;1784821;80;21136;-44
2021/03/19 06:05:15;;;;;;;140.15;15.13;;;;;;;0.78;86.57;100413.87;1785076;80;20974;-43
2021/03/19 06:08:02;;;;;;;106.25;12.30;;;;;;;0.92;85.84;100411.18;1784906;80;21361;-43
2021/03/19 06:10:41;;;;;;;119.15;12.35;;;;;;;1.00;84.92;100418.56;1785011;80;22763;-43
2021/03/19 06:13:22;;;;;;;101.22;11.88;;;;;;;1.04;83.62;100422.05;1784950;80;21535;-44
2021/03/19 06:15:55;;;;;;;88.50;10.38;;;;;;;1.07;82.80;100419.55;1784911;80;20888;-42
2021/03/19 06:18:45;;;;;;;127.72;13.00;;;;;;;1.16;82.59;100418.03;1784878;80;21077;-44
2021/03/19 06:21:26;;;;;;;115.75;13.20;;;;;;;1.24;81.42;100431.78;1784986;80;21590;-44
2021/03/19 06:24:16;;;;;;;101.40;12.13;;;;;;;1.32;81.07;100428.95;1784838;79;21038;-44
2021/03/19 06:26:43;;;;;;;119.90;14.07;;;;;;;1.37;80.63;100426.07;1782445;79;20939;-43
2021/03/19 06:29:34;;;;;;;121.90;13.53;;;;;;;1.49;80.59;100434.80;1784890;80;20935;-42
2021/03/19 06:32:24;;;;;;;96.92;10.55;;;;;;;1.64;80.17;100435.49;1788002;79;21076;-42
2021/03/19 06:35:03;;;;;;;124.20;14.28;;;;;;;1.72;79.30;100432.25;1799472;79;21191;-42
2021/03/19 06:37:37;;;;;;;117.72;12.05;;;;;;;1.78;78.92;100430.63;1797220;79;20906;-43
2021/03/19 06:40:26;;;;;;;106.07;11.85;;;;;;;1.84;77.35;100424.34;1799385;79;21010;-42
2021/03/19 06:42:53;;;;;;;113.52;11.30;;;;;;;1.76;74.68;100431.87;1799470;79;21610;-42
2021/03/19 06:45:23;;;;;;;103.35;10.68;;;;;;;1.75;74.98;100442.06;1799420;79;20926;-43
2021/03/19 06:47:56;;;;;;;98.22;10.13;;;;;;;1.82;75.11;100444.76;1799410;79;21203;-43
2021/03/19 06:50:30;;;;;;;94.15;9.48;;;;;;;1.89;74.06;100435.48;1799453;79;21499;-43
2021/03/19 06:53:18;;;;;;;95.77;11.85;;;;;;;1.96;74.43;100435.18;1799365;79;21029;-43
2021/03/19 06:56:18;;;;;;;93.78;9.95;;;;;;;2.18;73.86;100444.47;1889903;76;22600;-43
2021/03/19 06:58:48;;;;;;;106.97;12.60;;;;;;;2.26;73.85;100437.78;1860838;77;21590;-43
2021/03/19 07:01:38;;;;;;;94.30;10.60;;;;;;;2.37;73.31;100449.44;1860721;77;21712;-43
2021/03/19 07:04:34;;;;;;;120.53;10.93;;;;;;;2.45;73.09;100451.72;1860890;77;21752;-41
2021/03/19 07:07:30;;;;;;;107.20;10.75;;;;;;;2.44;72.77;100444.89;1860693;77;20946;-42
2021/03/19 07:10:07;;;;;;;98.33;11.40;;;;;;;2.46;73.01;100448.32;1860864;77;21037;-45
2021/03/19 07:12:52;;;;;;;88.50;9.30;;;;;;;2.53;72.81;100457.79;1860915;77;21551;-42
2021/03/19 07:15:28;;;;;;;95.65;10.63;;;;;;;2.58;72.19;100451.04;1860678;77;21188;-44
2021/03/19 07:18:28;;;;;;;76.90;9.10;;;;;;;2.70;71.96;100458.45;1860828;77;21642;-43
2021/03/19 07:21:49;;;;;;;80.85;9.78;;;;;;;2.69;71.22;100456.74;1860772;77;21061;-44
2021/03/19 07:24:28;;;;;;;115.15;10.95;;;;;;;2.77;71.31;100460.66;1822396;77;21001;-43
2021/03/19 07:27:02;;;;;;;90.70;10.18;;;;;;;2.88;70.85;100454.01;1848347;77;20930;-43
2021/03/19 07:29:53;;;;;;;83.12;10.68;;;;;;;2.88;69.80;100459.96;1827033;78;21198;-42
2021/03/19 07:33:04;;;;;;;82.78;11.05;;;;;;;2.79;68.50;100455.17;1825792;78;21065;-43
2021/03/19 07:35:57;;;;;;;85.83;10.90;;;;;;;2.76;68.77;100455.98;1826966;78;21005;-44
2021/03/19 07:38:58;;;;;;;82.95;8.20;;;;;;;2.82;68.54;100463.72;1826966;78;21053;-44
2021/03/19 07:41:46;;;;;;;89.17;8.95;;;;;;;2.93;67.92;100455.36;1827013;78;20953;-43
2021/03/19 07:44:55;;;;;;;114.22;11.12;;;;;;;2.96;68.12;100463.06;1826948;78;21519;-42
2021/03/19 07:47:31;;;;;;;117.28;12.53;;;;;;;3.13;68.11;100460.28;1788634;78;20954;-41
2021/03/19 07:50:22;;;;;;;88.03;9.18;;;;;;;3.21;67.82;100460.81;1827019;78;21005;-44
2021/03/19 07:53:31;;;;;;;104.25;11.53;;;;;;;3.25;66.78;100457.45;1826938;78;20962;-42
2021/03/19 07:56:31;;;;;;;106.85;9.63;;;;;;;3.14;66.49;100467.11;1826945;78;20918;-44
2021/03/19 07:59:21;;;;;;;104.65;10.25;;;;;;;3.16;67.52;100472.26;1827130;78;21196;-44
2021/03/19 08:02:07;;;;;;;101.15;11.12;;;;;;;3.26;67.63;100464.28;1826925;78;21033;-44
2021/03/19 08:04:41;;;;;;;93.60;11.08;;;;;;;3.27;67.25;100460.87;1825957;78;28314;-43
2021/03/19 08:07:20;;;;;;;112.12;11.68;;;;;;;3.29;67.48;100462.62;1826449;78;21033;-42
2021/03/19 08:10:01;;;;;;;101.35;11.55;;;;;;;3.40;67.44;100462.72;1826520;78;20950;-43
2021/03/19 08:12:56;;;;;;;112.77;11.68;;;;;;;3.51;66.21;100460.72;1826391;78;21353;-43
2021/03/19 08:15:50;;;;;;;113.25;10.58;;;;;;;3.54;64.54;100464.18;1826330;78;20994;-43
2021/03/19 08:18:31;;;;;;;114.22;11.00;;;;;;;3.54;65.43;100464.59;1826406;78;21017;-45
2021/03/19 08:21:24;;;;;;;92.10;9.33;;;;;;;3.63;65.25;100468.51;1794882;78;21021;-44
2021/03/19 08:24:04;;;;;;;105.10;11.63;;;;;;;3.74;64.17;100470.77;1826468;78;21025;-43
2021/03/19 08:26:48;;;;;;;95.75;9.75;;;;;;;3.87;64.88;100469.19;1826176;77;21333;-43
2021/03/19 08:29:39;;;;;;;73.85;8.50;;;;;;;4.09;64.37;100471.08;1826337;78;21057;-44
2021/03/19 08:32:39;;;;;;;114.90;10.95;;;;;;;4.23;63.59;100477.19;1826359;78;21065;-42
2021/03/19 08:35:27;;;;;;;110.35;11.55;;;;;;;4.26;63.14;100472.08;1826321;78;20923;-43
2021/03/19 08:38:24;;;;;;;104.70;11.03;;;;;;;4.46;62.86;100468.38;1826411;78;20998;-43
2021/03/19 08:40:59;;;;;;;112.62;11.57;;;;;;;4.53;62.16;100478.66;1826550;78;21526;-42
2021/03/19 08:43:37;;;;;;;;;;;;;;;4.55;62.16;100471.88;1829050;78;20993;-44
2021/03/19 08:46:18;;;;;;;;;;;;;;;4.72;61.81;100469.41;1829084;78;20144;-44
2021/03/19 08:49:03;;;;;;;104.83;9.33;;;;;;;4.83;59.95;100471.59;1826469;78;20519;-43
2021/03/19 08:51:42;;;;;;;91.17;9.88;;;;;;;4.80;59.86;100476.71;1826437;78;21021;-43
2021/03/19 08:54:26;;;;;;;98.82;9.58;;;;;;;4.77;60.23;100470.28;1826253;78;22219;-43
2021/03/19 08:57:07;;;;;;;85.15;9.98;;;;;;;4.94;60.32;100477.23;1819510;78;21058;-43
2021/03/19 08:59:42;;;;;;;92.33;10.98;;;;;;;5.11;59.70;100476.86;1828168;78;21445;-43
2021/03/19 09:02:46;;;;;;;90.38;9.98;;;;;;;5.29;59.43;100473.95;1829548;78;20983;-43
2021/03/19 09:05:31;;;;;;;82.33;8.68;;;;;;;5.42;59.46;100477.41;1829594;78;20924;-43
2021/03/19 09:08:22;;;;;;;73.37;9.23;;;;;;;5.43;57.01;100477.43;1829450;78;21199;-43
2021/03/19 09:11:01;;;;;;;75.32;9.03;;;;;;;5.57;56.58;100477.47;1884545;74;22074;-44
2021/03/19 09:13:29;;;;;;;86.15;9.23;;;;;;;5.61;55.02;100482.17;1852680;77;21069;-43
2021/03/19 09:15:57;;;;;;;88.72;8.35;;;;;;;5.75;56.21;100475.36;1852724;77;21192;-44
2021/03/19 09:18:47;;;;;;;82.97;8.95;;;;;;;5.97;54.08;100478.38;1852704;77;21357;-44
2021/03/19 09:21:35;;;;;;;71.45;7.58;;;;;;;5.91;55.89;100477.94;1852680;76;21152;-44
2021/03/19 09:24:17;;;;;;;91.57;8.83;;;;;;;5.99;55.60;100477.53;1852671;77;21531;-43
2021/03/19 09:26:54;;;;;;;92.50;9.43;;;;;;;6.28;55.92;100478.41;1843498;77;20934;-44
2021/03/19 09:29:31;;;;;;;93.67;8.65;;;;;;;6.47;54.61;100478.00;1790838;78;22079;-43
2021/03/19 09:32:04;;;;;;;71.05;10.93;;;;;;;6.57;55.06;100478.84;1819094;78;20994;-42
2021/03/19 09:34:52;;;;;;;88.27;8.98;;;;;;;6.70;54.61;100471.52;1796877;78;20997;-42
2021/03/19 09:37:41;;;;;;;68.67;8.48;;;;;;;6.85;52.37;100475.77;1819256;78;21464;-44
2021/03/19 09:40:15;;;;;;;57.13;6.65;;;;;;;6.88;52.26;100481.34;1819179;77;21014;-45
2021/03/19 09:42:47;;;;;;;59.45;6.58;;;;;;;7.03;53.08;100476.58;1814661;78;21203;-43
2021/03/19 09:45:23;;;;;;;86.00;8.68;;;;;;;7.23;52.61;100480.80;1819151;78;20934;-44
2021/03/19 09:47:55;;;;;;;98.60;9.23;;;;;;;7.30;52.35;100479.45;1819345;78;20966;-44
2021/03/19 09:50:31;;;;;;;76.33;8.75;;;;;;;7.44;51.91;100487.56;1818424;78;21053;-44
2021/03/19 09:53:08;;;;;;;83.52;8.65;;;;;;;7.54;51.81;100480.20;1819371;78;21021;-44
2021/03/19 09:55:45;;;;;;;72.47;8.63;;;;;;;7.65;52.50;100480.14;1819199;78;21123;-44
2021/03/19 09:58:42;;;;;;;65.28;6.62;;;;;;;7.86;50.32;100479.59;1819143;78;20982;-43
2021/03/19 10:01:41;;;;;;;84.22;8.28;;;;;;;7.91;51.03;100482.56;1819191;78;20935;-46
2021/03/19 10:04:30;;;;;;;66.15;6.40;;;;;;;8.07;49.21;100485.46;1819272;78;21057;-44
2021/03/19 10:07:17;;;;;;;49.40;7.47;;;;;;;8.11;47.77;100483.28;1847646;76;23248;-43
2021/03/19 10:09:52;;;;;;;66.47;6.40;;;;;;;7.98;48.41;100482.52;1817589;79;20930;-43
2021/03/19 10:12:30;;;;;;;71.00;8.28;;;;;;;7.99;49.34;100487.67;1817833;78;20927;-44
2021/03/19 10:15:21;;;;;;;63.00;7.00;;;;;;;7.91;47.51;100494.16;1817846;79;21642;-43
2021/03/19 10:17:52;;;;;;;69.12;7.95;;;;;;;7.79;48.38;100489.52;1817371;79;20974;-45
2021/03/19 10:20:36;;;;;;;65.10;6.85;;;;;;;7.97;47.79;100484.67;1817787;78;20910;-43
2021/03/19 10:23:27;;;;;;;65.17;6.92;;;;;;;8.22;48.39;100475.45;1817824;78;20975;-42
2021/03/19 10:26:38;;;;;;;70.72;7.35;;;;;;;8.46;46.46;100481.69;1817711;79;21491;-44
2021/03/19 10:29:23;;;;;;;82.82;7.60;;;;;;;8.59;46.66;100471.30;1755837;80;20998;-43
2021/03/19 10:31:59;;;;;;;53.28;6.47;;;;;;;8.98;46.00;100467.85;1756699;80;21017;-43
2021/03/19 10:34:48;;;;;;;49.63;7.05;;;;;;;9.28;44.47;100467.05;1785585;80;21013;-43
2021/03/19 10:37:35;;;;;;;67.85;7.75;;;;;;;9.42;42.69;100460.87;1785597;80;21471;-44
2021/03/19 10:40:36;;;;;;;60.67;6.78;;;;;;;9.31;44.49;100457.13;1785638;80;21346;-42
2021/03/19 10:43:31;;;;;;;72.40;8.25;;;;;;;9.10;42.73;100457.81;1785408;80;20906;-43
2021/03/19 10:46:10;;;;;;;56.63;5.80;;;;;;;8.74;44.98;100458.67;1785480;80;21002;-43
2021/03/19 10:48:58;;;;;;;61.48;7.17;;;;;;;8.82;44.44;100462.44;1785542;80;21023;-44
2021/03/19 10:51:44;;;;;;;47.93;5.58;;;;;;;8.89;45.25;100459.77;1785559;79;21097;-44
2021/03/19 10:54:34;;;;;;;56.60;6.27;;;;;;;8.99;43.88;100454.06;1785853;80;21195;-43
2021/03/19 10:57:16;;;;;;;58.68;7.37;;;;;;;8.77;43.10;100455.60;1785592;80;21574;-44
2021/03/19 10:59:44;;;;;;;40.48;6.03;;;;;;;8.66;44.44;100451.42;1768325;80;21029;-43
2021/03/19 11:02:16;;;;;;;52.67;6.35;;;;;;;8.51;43.76;100446.86;1785459;80;20922;-43
2021/03/19 11:04:58;;;;;;;44.00;6.05;;;;;;;8.23;44.77;100448.38;1785587;80;20946;-44
2021/03/19 11:07:35;;;;;;;49.95;6.20;;;;;;;8.08;45.14;100453.66;1785534;80;21430;-44
2021/03/19 11:10:15;;;;;;;47.10;6.12;;;;;;;8.10;44.38;100445.47;1785590;80;21029;-45
2021/03/19 11:12:53;;;;;;;41.90;6.17;;;;;;;7.69;46.35;100456.06;1785608;80;21073;-43
2021/03/19 11:15:36;;;;;;;51.40;6.50;;;;;;;7.58;47.06;100451.00;1785483;80;21093;-43
2021/03/19 11:18:24;;;;;;;66.60;7.25;;;;;;;7.64;47.23;100455.24;1785094;80;20927;-43
2021/03/19 11:21:08;;;;;;;42.58;7.03;;;;;;;7.47;46.86;100455.34;1784957;80;21373;-43
2021/03/19 11:23:47;;;;;;;45.35;6.37;;;;;;;7.30;46.69;100454.16;1784962;79;20979;-44
2021/03/19 11:26:33;;;;;;;52.20;7.08;;;;;;;6.98;47.64;100455.16;1784887;80;21005;-44
2021/03/19 11:29:21;;;;;;;58.58;7.42;;;;;;;6.98;48.10;100456.44;1784933;80;20982;-44
2021/03/19 11:32:17;;;;;;;55.55;7.10;;;;;;;6.80;49.13;100461.19;1785064;80;20994;-43
2021/03/19 11:34:50;;;;;;;58.45;6.75;;;;;;;6.79;50.63;100452.62;1784043;80;21365;-43
2021/03/19 11:37:27;;;;;;;51.20;6.78;;;;;;;6.97;51.86;100463.73;1784905;80;20970;-43
2021/03/19 11:40:03;;;;;;;46.98;6.17;;;;;;;7.16;51.56;100460.20;1784969;80;21065;-42
2021/03/19 11:42:47;;;;;;;40.45;5.83;;;;;;;7.40;49.91;100460.95;1761474;80;21631;-44
2021/03/19 11:45:25;;;;;;;41.92;5.58;;;;;;;7.51;47.89;100461.34;1784983;79;21592;-42
2021/03/19 11:48:24;;;;;;;42.62;5.78;;;;;;;7.64;47.96;100455.69;1847641;76;22496;-44
2021/03/19 11:50:57;;;;;;;43.55;5.12;;;;;;;7.74;47.18;100456.04;1803563;79;20970;-44
2021/03/19 11:53:27;;;;;;;47.50;6.25;;;;;;;7.76;47.62;100461.63;1816034;79;21381;-43
2021/03/19 11:55:56;;;;;;;45.65;5.50;;;;;;;7.72;47.15;100466.38;1817753;77;21009;-43
2021/03/19 11:58:27;;;;;;;32.23;6.15;;;;;;;7.58;46.19;100463.89;1817896;79;21621;-43
2021/03/19 12:00:55;;;;;;;56.63;9.63;;;;;;;7.48;47.58;100462.20;1817822;77;21559;-43
2021/03/19 12:03:43;;;;;;;56.73;7.72;;;;;;;7.47;49.35;100460.50;1817774;79;20966;-43
2021/03/19 12:06:13;;;;;;;52.10;7.45;;;;;;;7.41;49.80;100465.24;1817811;79;21421;-43
2021/03/19 12:08:42;;;;;;;44.10;6.62;;;;;;;7.46;50.39;100466.09;1817736;78;20982;-43